Time;durP1;ratioP1;P1;durP2;ratioP2;P2;SDS_P1;SDS_P2;PMS_P1;PMS_P2;Temp;Humidity;BMP_temperature;BMP_pressure;BME280_temperature;BME280_humidity;BME280_pressure;Samples;Min_cycle;Max_cycle;Signal;HPM_P1;HPM_P2
2023/11/30 00:01:37;;;;;;;4.70;3.60;;;-0.20;99.90;;;;;;5053736;28;20412;-61
2023/11/30 00:04:03;;;;;;;5.97;4.20;;;-0.30;99.90;;;;;;5053846;28;20194;-62
2023/11/30 00:06:28;;;;;;;5.23;4.50;;;-0.40;99.90;;;;;;5041297;28;20679;-62
2023/11/30 00:08:57;;;;;;;5.13;3.97;;;-0.40;99.90;;;;;;5045166;28;20263;-63
2023/11/30 00:11:22;;;;;;;5.00;4.53;;;-0.50;99.90;;;;;;5049978;28;20184;-61
2023/11/30 00:13:48;;;;;;;9.77;5.60;;;-0.50;99.90;;;;;;5054903;28;20471;-62
2023/11/30 00:16:14;;;;;;;7.33;5.27;;;-0.50;99.90;;;;;;5052790;28;20179;-62
2023/11/30 00:18:39;;;;;;;6.70;4.87;;;-0.60;99.90;;;;;;5058388;28;20835;-62
2023/11/30 00:21:05;;;;;;;5.10;4.67;;;-0.60;99.90;;;;;;5046414;28;20532;-62
2023/11/30 00:23:32;;;;;;;6.57;5.30;;;-0.60;99.90;;;;;;5040469;28;20587;-59
2023/11/30 00:25:58;;;;;;;6.97;5.93;;;-0.70;99.90;;;;;;5047228;28;20163;-61
2023/11/30 00:28:24;;;;;;;8.90;6.30;;;-0.80;99.90;;;;;;5034806;28;20425;-62
2023/11/30 00:30:49;;;;;;;6.67;5.67;;;-0.90;99.90;;;;;;5034973;28;20179;-62
2023/11/30 00:33:15;;;;;;;6.13;5.03;;;-0.90;99.90;;;;;;5035410;28;20203;-61
2023/11/30 00:35:41;;;;;;;7.73;7.03;;;-1.00;99.90;;;;;;5041088;28;20179;-63
2023/11/30 00:38:06;;;;;;;6.30;5.70;;;-0.90;99.90;;;;;;5050424;28;20189;-62
2023/11/30 00:40:32;;;;;;;6.03;5.13;;;-1.00;99.90;;;;;;5050799;28;20256;-62
2023/11/30 00:42:57;;;;;;;8.83;7.07;;;-1.00;99.90;;;;;;5049547;28;20207;-62
2023/11/30 00:45:23;;;;;;;8.80;6.90;;;-1.00;99.90;;;;;;5056591;28;20359;-61
2023/11/30 00:47:48;;;;;;;12.07;6.43;;;-1.10;99.90;;;;;;5039745;28;20677;-62
2023/11/30 00:50:14;;;;;;;11.00;6.80;;;-1.00;99.90;;;;;;5055570;28;20233;-62
2023/11/30 00:52:40;;;;;;;7.13;6.00;;;-1.10;99.90;;;;;;5053819;28;20199;-63
2023/11/30 00:55:06;;;;;;;8.00;6.07;;;-1.10;99.90;;;;;;5054344;28;20197;-60
2023/11/30 00:57:31;;;;;;;7.90;6.03;;;-1.10;99.90;;;;;;5043341;28;20171;-61
2023/11/30 01:00:00;;;;;;;16.77;8.20;;;-1.20;99.90;;;;;;5043322;28;20414;-62
2023/11/30 01:02:26;;;;;;;9.93;6.27;;;-1.20;99.90;;;;;;5042924;28;20203;-62
2023/11/30 01:04:52;;;;;;;12.10;6.90;;;-1.20;99.90;;;;;;5051113;28;20775;-63
2023/11/30 01:07:17;;;;;;;9.43;6.43;;;-1.30;99.90;;;;;;5041595;28;20990;-63
2023/11/30 01:09:43;;;;;;;12.40;7.33;;;-1.20;99.90;;;;;;5040700;28;20512;-63
2023/11/30 01:12:11;;;;;;;9.73;6.57;;;-1.30;99.90;;;;;;5037523;28;20729;-63
2023/11/30 01:14:36;;;;;;;10.83;7.57;;;-1.30;99.90;;;;;;5041290;28;20569;-62
2023/11/30 01:17:02;;;;;;;7.70;6.20;;;-1.30;99.90;;;;;;5049895;28;20410;-61
2023/11/30 01:19:28;;;;;;;10.80;8.00;;;-1.30;99.90;;;;;;5056784;28;20551;-63
2023/11/30 01:21:53;;;;;;;9.37;6.13;;;-1.30;99.90;;;;;;5056540;28;20565;-63
2023/11/30 01:24:19;;;;;;;7.03;5.97;;;-1.40;99.90;;;;;;5046728;28;20215;-62
2023/11/30 01:26:44;;;;;;;8.03;7.00;;;-1.30;99.90;;;;;;5036870;28;20684;-62
2023/11/30 01:29:10;;;;;;;9.60;7.50;;;-1.30;99.90;;;;;;5037657;28;20182;-61
2023/11/30 01:31:35;;;;;;;10.87;8.03;;;-1.40;99.90;;;;;;5046098;28;20170;-62
2023/11/30 01:34:01;;;;;;;9.23;6.43;;;-1.40;99.90;;;;;;5046670;28;20195;-63
2023/11/30 01:36:27;;;;;;;9.17;7.00;;;-1.40;99.90;;;;;;5045938;28;20195;-62
2023/11/30 01:38:52;;;;;;;9.57;6.30;;;-1.50;99.90;;;;;;5039841;28;20253;-62
2023/11/30 01:41:18;;;;;;;12.77;8.77;;;-1.40;99.90;;;;;;5048418;28;20210;-62
2023/11/30 01:43:43;;;;;;;14.07;8.77;;;-1.40;99.90;;;;;;5045926;28;20284;-62
2023/11/30 01:46:09;;;;;;;11.07;8.37;;;-1.40;99.90;;;;;;5054527;28;20182;-62
2023/11/30 01:48:35;;;;;;;10.73;8.00;;;-1.40;99.90;;;;;;5048210;28;20206;-62
2023/11/30 01:51:04;;;;;;;11.07;7.97;;;-1.40;99.90;;;;;;5044455;28;20453;-62
2023/11/30 01:53:30;;;;;;;11.33;8.70;;;-1.30;99.90;;;;;;5037211;28;20617;-61
2023/11/30 01:55:55;;;;;;;14.70;8.60;;;-1.20;99.90;;;;;;5036992;28;20417;-62
2023/11/30 01:58:21;;;;;;;12.30;8.63;;;-1.20;99.90;;;;;;5044160;28;20213;-62
2023/11/30 02:00:48;;;;;;;13.50;8.67;;;-1.10;99.90;;;;;;5055747;28;20167;-63
2023/11/30 02:03:14;;;;;;;11.37;7.97;;;-1.10;99.90;;;;;;5050830;28;20199;-62
2023/11/30 02:05:40;;;;;;;11.10;7.30;;;-1.10;99.90;;;;;;5053552;28;20437;-60
2023/11/30 02:08:05;;;;;;;11.10;8.13;;;-1.10;99.90;;;;;;5051317;28;20508;-62
2023/11/30 02:10:31;;;;;;;19.27;8.17;;;-1.10;99.90;;;;;;5053581;28;20181;-61
2023/11/30 02:12:57;;;;;;;12.83;8.03;;;-1.10;99.90;;;;;;5050007;28;20231;-62
2023/11/30 02:15:23;;;;;;;11.80;7.83;;;-1.10;99.90;;;;;;5047293;28;20175;-61
2023/11/30 02:17:49;;;;;;;10.10;7.10;;;-1.10;99.90;;;;;;5057035;28;20249;-62
2023/11/30 02:20:15;;;;;;;10.33;8.00;;;-1.10;99.90;;;;;;5044873;28;21005;-62
2023/11/30 02:22:40;;;;;;;10.47;7.37;;;-1.10;99.90;;;;;;5054313;28;20540;-63
2023/11/30 02:25:07;;;;;;;12.53;8.80;;;-1.10;99.90;;;;;;5054120;28;20175;-63
2023/11/30 02:27:32;;;;;;;14.13;8.70;;;-1.10;99.90;;;;;;5043942;28;20701;-63
2023/11/30 02:29:58;;;;;;;13.33;9.07;;;-1.20;99.90;;;;;;5039480;28;20446;-63
2023/11/30 02:32:23;;;;;;;10.73;7.33;;;-1.30;99.90;;;;;;5042271;28;20689;-60
2023/11/30 02:34:49;;;;;;;12.67;9.27;;;-1.30;99.90;;;;;;5042238;28;20705;-63
2023/11/30 02:37:14;;;;;;;13.80;7.93;;;-1.30;99.90;;;;;;5044160;28;20171;-63
2023/11/30 02:39:40;;;;;;;9.50;7.50;;;-1.40;99.90;;;;;;5047265;28;20167;-62
2023/11/30 02:42:06;;;;;;;9.90;7.17;;;-1.50;99.90;;;;;;5040131;28;20194;-62
2023/11/30 02:44:31;;;;;;;10.40;8.10;;;-1.60;99.90;;;;;;5042975;28;20685;-63
2023/11/30 02:46:57;;;;;;;17.23;9.20;;;-1.70;99.90;;;;;;5042223;28;20694;-63
2023/11/30 02:49:22;;;;;;;10.40;7.53;;;-1.70;99.90;;;;;;5040744;28;20179;-62
2023/11/30 02:51:48;;;;;;;16.40;7.60;;;-1.80;99.90;;;;;;5041931;28;20202;-63
2023/11/30 02:54:14;;;;;;;12.67;8.80;;;-1.90;99.90;;;;;;5040821;28;20704;-62
2023/11/30 02:56:40;;;;;;;11.97;9.07;;;-1.90;99.90;;;;;;5039305;28;20226;-62
2023/11/30 02:59:06;;;;;;;9.30;7.00;;;-1.90;99.90;;;;;;5042128;28;20175;-62
2023/11/30 03:01:31;;;;;;;13.37;7.90;;;-1.90;99.90;;;;;;5041879;28;20415;-62
2023/11/30 03:03:57;;;;;;;11.27;8.20;;;-1.90;99.90;;;;;;5041646;28;20297;-62
2023/11/30 03:06:22;;;;;;;12.07;8.60;;;-1.80;99.90;;;;;;5039394;28;20191;-62
2023/11/30 03:08:48;;;;;;;12.20;8.47;;;-1.80;99.90;;;;;;5041663;28;20202;-63
2023/11/30 03:11:14;;;;;;;12.20;8.53;;;-1.80;99.90;;;;;;5042331;28;20171;-63
2023/11/30 03:13:40;;;;;;;12.60;7.40;;;-1.80;99.90;;;;;;5039601;28;20693;-63
2023/11/30 03:16:06;;;;;;;11.10;7.57;;;-1.90;99.90;;;;;;5038372;28;20279;-63
2023/11/30 03:18:31;;;;;;;12.50;8.87;;;-1.90;99.90;;;;;;5044404;28;20407;-63
2023/11/30 03:20:57;;;;;;;14.10;8.77;;;-2.00;99.90;;;;;;5043899;28;20451;-63
2023/11/30 03:23:22;;;;;;;13.03;8.43;;;-2.00;99.90;;;;;;5037715;28;20352;-63
2023/11/30 03:25:48;;;;;;;10.73;7.67;;;-2.10;99.90;;;;;;5047007;28;20190;-61
2023/11/30 03:28:13;;;;;;;16.03;8.67;;;-2.20;99.90;;;;;;5056586;28;20179;-64
2023/11/30 03:30:39;;;;;;;12.80;8.07;;;-2.10;99.90;;;;;;5059644;28;20253;-61
2023/11/30 03:33:04;;;;;;;12.57;9.30;;;-2.20;99.90;;;;;;5056725;28;20522;-61
2023/11/30 03:35:30;;;;;;;13.07;9.50;;;-2.20;99.90;;;;;;5047308;28;20175;-62
2023/11/30 03:37:56;;;;;;;12.43;8.63;;;-2.20;99.90;;;;;;5045506;28;20171;-64
2023/11/30 03:40:21;;;;;;;14.70;10.10;;;-2.20;99.90;;;;;;5056751;28;20171;-63
2023/11/30 03:42:47;;;;;;;16.47;10.10;;;-2.20;99.90;;;;;;5057075;28;20567;-61
2023/11/30 03:45:12;;;;;;;15.33;10.30;;;-2.20;99.90;;;;;;5052907;28;20182;-61
2023/11/30 03:47:38;;;;;;;14.30;9.80;;;-2.20;99.90;;;;;;5054366;28;20171;-63
2023/11/30 03:50:04;;;;;;;13.27;10.23;;;-2.30;99.90;;;;;;5047024;28;20174;-63
2023/11/30 03:52:29;;;;;;;17.13;10.30;;;-2.40;99.90;;;;;;5035752;28;20547;-61
2023/11/30 03:54:55;;;;;;;20.37;11.07;;;-2.40;99.90;;;;;;5036026;28;20460;-61
2023/11/30 03:57:21;;;;;;;17.57;10.27;;;-2.50;99.90;;;;;;5039813;28;20182;-61
2023/11/30 03:59:46;;;;;;;15.60;9.00;;;-2.50;99.90;;;;;;5044059;28;20171;-62
2023/11/30 04:02:12;;;;;;;19.17;9.87;;;-2.40;99.90;;;;;;5041933;28;20256;-61
2023/11/30 04:04:38;;;;;;;17.17;11.13;;;-2.40;99.90;;;;;;5042956;28;20258;-62
2023/11/30 04:07:04;;;;;;;12.07;9.57;;;-2.40;99.90;;;;;;5036285;28;20759;-62
2023/11/30 04:09:29;;;;;;;15.17;10.50;;;-2.40;99.90;;;;;;5035616;28;20457;-61
2023/11/30 04:11:55;;;;;;;14.60;9.40;;;-2.30;99.90;;;;;;5042660;28;20543;-62
2023/11/30 04:14:20;;;;;;;15.60;9.73;;;-2.30;99.90;;;;;;5040641;28;20203;-62
2023/11/30 04:16:46;;;;;;;15.47;10.13;;;-2.30;99.90;;;;;;5050886;28;20280;-62
2023/11/30 04:19:12;;;;;;;12.70;8.60;;;-2.40;99.90;;;;;;5050124;28;20185;-62
2023/11/30 04:21:37;;;;;;;15.17;8.90;;;-2.40;99.90;;;;;;5038659;28;20410;-62
2023/11/30 04:24:03;;;;;;;17.70;10.83;;;-2.40;99.90;;;;;;5032409;28;20195;-62
2023/11/30 04:26:29;;;;;;;18.20;10.33;;;-2.50;99.90;;;;;;5033927;28;20187;-62
2023/11/30 04:28:55;;;;;;;14.60;8.67;;;-2.60;99.90;;;;;;5042331;28;20422;-62
2023/11/30 04:31:20;;;;;;;16.00;8.27;;;-2.60;99.90;;;;;;5048597;28;20516;-61
2023/11/30 04:33:46;;;;;;;13.30;8.40;;;-2.70;99.90;;;;;;5042449;28;20618;-62
2023/11/30 04:36:15;;;;;;;17.60;9.83;;;-2.70;99.90;;;;;;5032176;28;20317;-61
2023/11/30 04:38:40;;;;;;;17.17;10.47;;;-2.70;99.90;;;;;;5047667;22;20223;-55
2023/11/30 04:41:06;;;;;;;19.87;10.40;;;-2.70;99.90;;;;;;5050036;28;20444;-54
2023/11/30 04:43:31;;;;;;;17.23;9.93;;;-2.80;99.90;;;;;;5058691;28;20206;-53
2023/11/30 04:45:57;;;;;;;12.43;8.63;;;-2.80;99.90;;;;;;5050020;28;20468;-57
2023/11/30 04:48:23;;;;;;;19.80;9.30;;;-2.90;99.90;;;;;;5041869;28;20285;-56
2023/11/30 04:50:48;;;;;;;11.67;8.40;;;-2.90;99.90;;;;;;5048106;28;20209;-54
2023/11/30 04:53:14;;;;;;;17.87;10.30;;;-2.90;99.90;;;;;;5045049;28;20210;-58
2023/11/30 04:55:39;;;;;;;12.87;9.33;;;-3.00;99.90;;;;;;5061476;28;20186;-56
2023/11/30 04:58:05;;;;;;;14.40;9.80;;;-3.00;99.90;;;;;;5048808;28;20179;-54
2023/11/30 05:00:31;;;;;;;16.27;10.27;;;-2.90;99.90;;;;;;5050048;28;20190;-53
2023/11/30 05:02:56;;;;;;;14.60;9.37;;;-3.00;99.90;;;;;;5043925;28;20206;-52
2023/11/30 05:05:22;;;;;;;15.43;9.57;;;-3.00;99.90;;;;;;5050414;28;20274;-52
2023/11/30 05:07:49;;;;;;;14.90;9.23;;;-3.10;99.90;;;;;;5060719;28;20182;-59
2023/11/30 05:10:14;;;;;;;17.37;12.00;;;-3.00;99.90;;;;;;5049142;28;20499;-55
2023/11/30 05:12:40;;;;;;;17.50;10.40;;;-3.00;99.90;;;;;;5056577;28;20432;-62
2023/11/30 05:15:06;;;;;;;16.77;9.87;;;-3.00;99.90;;;;;;5056489;28;20463;-56
2023/11/30 05:17:32;;;;;;;16.63;9.80;;;-3.00;99.90;;;;;;5049457;28;20187;-56
2023/11/30 05:19:58;;;;;;;11.40;9.30;;;-3.10;99.90;;;;;;5049089;28;20491;-55
2023/11/30 05:22:24;;;;;;;18.33;10.00;;;-3.10;99.90;;;;;;5049837;28;20418;-56
2023/11/30 05:24:50;;;;;;;14.43;10.07;;;-3.10;99.90;;;;;;5054348;28;20439;-59
2023/11/30 05:27:16;;;;;;;11.03;8.90;;;-3.00;99.90;;;;;;5048323;28;20268;-60
2023/11/30 05:29:42;;;;;;;17.60;9.67;;;-3.00;99.90;;;;;;5047323;28;20468;-56
2023/11/30 05:32:08;;;;;;;16.50;11.03;;;-3.00;99.90;;;;;;5048370;28;20751;-59
2023/11/30 05:34:35;;;;;;;13.70;9.10;;;-3.10;99.90;;;;;;5049066;28;20460;-56
2023/11/30 05:37:03;;;;;;;14.60;10.83;;;-3.00;99.90;;;;;;5050012;28;20237;-56
2023/11/30 05:39:29;;;;;;;15.30;9.27;;;-3.00;99.90;;;;;;5056586;28;20449;-57
2023/11/30 05:41:55;;;;;;;18.53;11.03;;;-3.00;99.90;;;;;;5049098;28;20500;-56
2023/11/30 05:44:21;;;;;;;17.20;9.73;;;-3.00;99.90;;;;;;5049663;28;20880;-57
2023/11/30 05:46:46;;;;;;;16.60;9.27;;;-2.80;99.90;;;;;;5049404;28;20179;-58
2023/11/30 05:49:12;;;;;;;17.50;11.63;;;-2.70;99.90;;;;;;5046765;28;20321;-59
2023/11/30 05:51:40;;;;;;;16.43;9.87;;;-2.70;99.90;;;;;;5049147;28;20348;-58
2023/11/30 05:54:05;;;;;;;14.90;9.67;;;-2.70;99.90;;;;;;5057314;28;20465;-54
2023/11/30 05:56:31;;;;;;;17.50;8.40;;;-2.60;99.90;;;;;;5055226;28;20949;-55
2023/11/30 05:58:57;;;;;;;20.90;10.90;;;-2.60;99.90;;;;;;5048651;28;20440;-56
2023/11/30 06:01:23;;;;;;;17.57;10.17;;;-2.50;99.90;;;;;;5049310;28;20639;-57
2023/11/30 06:03:49;;;;;;;18.33;9.63;;;-2.40;99.90;;;;;;5046867;28;20459;-59
2023/11/30 06:06:14;;;;;;;19.17;10.03;;;-2.40;99.90;;;;;;5044442;28;20814;-59
2023/11/30 06:08:40;;;;;;;15.70;10.20;;;-2.40;99.90;;;;;;5048781;28;20217;-58
2023/11/30 06:11:06;;;;;;;23.87;11.97;;;-2.30;99.90;;;;;;5048919;28;20256;-58
2023/11/30 06:13:31;;;;;;;19.47;11.67;;;-2.20;99.90;;;;;;5048953;28;20207;-57
2023/11/30 06:15:57;;;;;;;20.00;10.73;;;-2.10;99.90;;;;;;5045486;28;20186;-59
2023/11/30 06:18:23;;;;;;;19.43;10.77;;;-2.00;99.90;;;;;;5048778;28;20233;-60
2023/11/30 06:20:49;;;;;;;17.73;12.97;;;-2.00;99.90;;;;;;5048915;28;20175;-57
2023/11/30 06:23:15;;;;;;;22.70;9.37;;;-1.90;99.90;;;;;;5048641;28;20479;-59
2023/11/30 06:25:42;;;;;;;17.50;10.00;;;-1.90;99.90;;;;;;5049074;28;20187;-58
2023/11/30 06:28:08;;;;;;;16.23;9.87;;;-1.90;99.90;;;;;;5046713;28;20183;-57
2023/11/30 06:30:34;;;;;;;13.50;8.13;;;-1.90;99.90;;;;;;5047270;28;20440;-58
2023/11/30 06:32:59;;;;;;;18.43;11.07;;;-1.80;99.90;;;;;;5050033;28;20332;-56
2023/11/30 06:35:25;;;;;;;19.77;10.50;;;-1.80;99.90;;;;;;5055462;28;20520;-59
2023/11/30 06:37:51;;;;;;;15.17;10.43;;;-1.70;99.90;;;;;;5056640;28;20183;-54
2023/11/30 06:40:17;;;;;;;15.10;11.60;;;-1.70;99.90;;;;;;5059193;28;20317;-57
2023/11/30 06:42:42;;;;;;;24.47;12.00;;;-1.60;99.90;;;;;;5055617;28;20629;-57
2023/11/30 06:45:08;;;;;;;19.50;10.80;;;-1.60;99.90;;;;;;5040583;28;20446;-57
2023/11/30 06:47:34;;;;;;;20.03;11.07;;;-1.60;99.90;;;;;;5056812;28;20186;-57
2023/11/30 06:50:00;;;;;;;17.57;9.87;;;-1.60;99.90;;;;;;5054696;28;20842;-57
2023/11/30 06:52:25;;;;;;;20.50;12.00;;;-1.60;99.90;;;;;;5052439;28;20278;-58
2023/11/30 06:54:51;;;;;;;17.60;10.60;;;-1.50;99.90;;;;;;5052255;28;20631;-59
2023/11/30 06:57:16;;;;;;;15.47;10.57;;;-1.50;99.90;;;;;;5051830;28;20194;-56
2023/11/30 06:59:43;;;;;;;19.03;12.07;;;-1.50;99.90;;;;;;5056994;28;20193;-57
2023/11/30 07:02:09;;;;;;;18.30;12.17;;;-1.40;99.90;;;;;;5051990;28;20183;-56
2023/11/30 07:04:35;;;;;;;19.60;10.40;;;-1.40;99.90;;;;;;5051751;28;20425;-59
2023/11/30 07:07:01;;;;;;;19.77;11.20;;;-1.40;99.90;;;;;;5051753;28;20425;-54
2023/11/30 07:09:26;;;;;;;26.93;13.40;;;-1.40;99.90;;;;;;5052281;28;20234;-57
2023/11/30 07:11:52;;;;;;;30.33;15.23;;;-1.40;99.90;;;;;;5052053;28;20872;-58
2023/11/30 07:14:18;;;;;;;23.03;13.10;;;-1.40;99.90;;;;;;5048606;28;20259;-59
2023/11/30 07:16:44;;;;;;;21.73;12.63;;;-1.40;99.90;;;;;;5047593;28;20278;-56
2023/11/30 07:19:09;;;;;;;20.30;13.53;;;-1.40;99.90;;;;;;5061902;28;20598;-59
2023/11/30 07:21:35;;;;;;;23.87;13.27;;;-1.50;99.90;;;;;;5051309;28;20988;-57
2023/11/30 07:24:01;;;;;;;21.30;13.13;;;-1.50;99.90;;;;;;5051509;28;20187;-56
2023/11/30 07:26:26;;;;;;;28.03;15.97;;;-1.50;99.90;;;;;;5051774;28;20270;-57
2023/11/30 07:28:52;;;;;;;26.27;14.73;;;-1.60;99.90;;;;;;5051476;28;20257;-59
2023/11/30 07:31:21;;;;;;;32.67;15.27;;;-1.60;99.90;;;;;;5044379;28;20191;-55
2023/11/30 07:33:48;;;;;;;28.10;16.17;;;-1.60;99.90;;;;;;5053017;28;20703;-56
2023/11/30 07:36:13;;;;;;;28.23;14.40;;;-1.60;99.90;;;;;;5051473;28;20453;-59
2023/11/30 07:38:39;;;;;;;26.17;14.97;;;-1.60;99.90;;;;;;5051670;28;20477;-55
2023/11/30 07:41:06;;;;;;;24.47;14.33;;;-1.60;99.90;;;;;;5051809;28;20413;-57
2023/11/30 07:43:32;;;;;;;23.87;15.40;;;-1.60;99.90;;;;;;5057506;28;20432;-59
2023/11/30 07:45:58;;;;;;;25.47;13.67;;;-1.50;99.90;;;;;;5055247;28;20453;-57
2023/11/30 07:48:24;;;;;;;17.97;12.17;;;-1.40;99.90;;;;;;5051399;28;20564;-57
2023/11/30 07:50:51;;;;;;;20.17;12.90;;;-1.40;99.90;;;;;;5030551;28;20194;-58
2023/11/30 07:53:18;;;;;;;16.30;9.63;;;-1.30;99.90;;;;;;5047533;28;20302;-59
2023/11/30 07:55:44;;;;;;;24.60;11.50;;;-1.20;99.90;;;;;;5055551;28;20421;-57
2023/11/30 07:58:10;;;;;;;20.33;13.17;;;-1.10;99.90;;;;;;5058700;28;20520;-54
2023/11/30 08:00:36;;;;;;;16.93;12.47;;;-1.10;99.90;;;;;;5051309;28;20524;-57
2023/11/30 08:03:02;;;;;;;10.47;8.23;;;-1.00;99.90;;;;;;5051071;28;20218;-60
2023/11/30 08:05:27;;;;;;;16.33;11.50;;;-0.80;99.90;;;;;;5068237;28;20178;-56
2023/11/30 08:07:53;;;;;;;17.63;11.03;;;-0.90;99.90;;;;;;5050822;28;20762;-57
2023/11/30 08:10:19;;;;;;;15.50;9.33;;;-0.80;99.90;;;;;;5051013;28;20210;-59
2023/11/30 08:12:45;;;;;;;17.37;10.50;;;-0.80;99.90;;;;;;5047836;28;20192;-59
2023/11/30 08:15:11;;;;;;;16.97;10.33;;;-0.70;99.90;;;;;;5047240;28;20461;-58
2023/11/30 08:17:36;;;;;;;11.30;8.73;;;-0.70;99.90;;;;;;5060674;28;20460;-56
2023/11/30 08:20:02;;;;;;;14.27;9.87;;;-0.60;99.90;;;;;;5050341;28;20364;-58
2023/11/30 08:22:28;;;;;;;16.97;9.43;;;-0.70;99.90;;;;;;5046369;28;20182;-55
2023/11/30 08:24:53;;;;;;;15.20;8.80;;;-0.60;99.90;;;;;;5050652;28;20710;-54
2023/11/30 08:27:22;;;;;;;13.20;8.87;;;-0.60;99.90;;;;;;5059310;28;20213;-59
2023/11/30 08:29:49;;;;;;;13.27;9.27;;;-0.50;99.90;;;;;;5056881;28;20193;-50
2023/11/30 08:32:15;;;;;;;10.97;8.93;;;-0.40;99.90;;;;;;5041518;28;20443;-56
2023/11/30 08:34:40;;;;;;;14.73;9.93;;;-0.30;99.90;;;;;;5051799;28;20526;-59
2023/11/30 08:37:06;;;;;;;15.00;8.73;;;-0.20;99.90;;;;;;5050977;28;20465;-59
2023/11/30 08:39:31;;;;;;;20.60;10.20;;;-0.20;99.90;;;;;;5051923;28;20214;-54
2023/11/30 08:41:57;;;;;;;14.23;9.30;;;-0.20;99.90;;;;;;5058415;28;20210;-55
2023/11/30 08:44:23;;;;;;;15.70;9.60;;;-0.10;99.90;;;;;;5061098;28;20565;-53
2023/11/30 08:46:49;;;;;;;14.93;9.37;;;-0.10;99.90;;;;;;5061698;28;20186;-51
2023/11/30 08:49:15;;;;;;;12.57;9.53;;;-0.20;99.90;;;;;;5053620;28;20811;-52
2023/11/30 08:51:42;;;;;;;13.30;9.63;;;-0.10;99.90;;;;;;5053432;28;20456;-55
2023/11/30 08:54:07;;;;;;;14.00;8.47;;;-0.10;99.90;;;;;;5058506;28;21031;-51
2023/11/30 08:56:33;;;;;;;20.40;9.17;;;0.00;99.90;;;;;;5061685;28;20433;-51
2023/11/30 08:58:58;;;;;;;13.73;9.90;;;0.00;99.90;;;;;;5046041;28;20203;-53
2023/11/30 09:01:24;;;;;;;12.37;8.77;;;0.00;99.90;;;;;;5040956;28;20236;-59
2023/11/30 09:03:52;;;;;;;13.83;8.80;;;0.10;99.90;;;;;;5049959;28;20684;-56
2023/11/30 09:06:17;;;;;;;17.90;10.37;;;0.10;99.90;;;;;;5048793;28;20302;-57
2023/11/30 09:08:43;;;;;;;13.70;8.77;;;0.10;99.90;;;;;;5055494;28;20539;-54
2023/11/30 09:11:09;;;;;;;13.90;9.60;;;0.20;99.90;;;;;;5052573;28;20200;-57
2023/11/30 09:13:35;;;;;;;12.80;9.20;;;0.20;99.90;;;;;;5049848;28;20511;-57
2023/11/30 09:16:01;;;;;;;14.97;10.80;;;0.30;99.90;;;;;;5058064;28;20179;-61
2023/11/30 09:18:26;;;;;;;14.17;10.80;;;0.20;99.90;;;;;;5049627;28;20480;-56
2023/11/30 09:20:52;;;;;;;12.90;9.13;;;0.30;99.90;;;;;;5049858;28;20445;-59
2023/11/30 09:23:18;;;;;;;15.47;9.60;;;0.40;99.90;;;;;;5049400;28;20221;-57
2023/11/30 09:25:43;;;;;;;15.00;9.37;;;0.40;99.90;;;;;;5047473;28;20631;-57
2023/11/30 09:28:12;;;;;;;12.93;8.30;;;0.50;99.90;;;;;;5050549;28;20195;-58
2023/11/30 09:30:37;;;;;;;14.67;9.50;;;0.50;99.90;;;;;;5049743;28;20182;-58
2023/11/30 09:33:04;;;;;;;14.47;9.60;;;0.60;99.90;;;;;;5041287;28;20494;-58
2023/11/30 09:35:30;;;;;;;12.43;9.27;;;0.70;99.90;;;;;;5041710;28;20214;-57
2023/11/30 09:37:55;;;;;;;10.90;7.53;;;0.80;99.90;;;;;;5051253;28;20453;-55
2023/11/30 09:40:21;;;;;;;16.17;9.90;;;0.80;99.90;;;;;;5050015;28;20194;-59
2023/11/30 09:42:46;;;;;;;16.63;9.30;;;0.70;99.90;;;;;;5051932;28;20177;-58
2023/11/30 09:45:14;;;;;;;13.90;9.27;;;0.80;99.90;;;;;;5046705;28;20860;-57
2023/11/30 09:47:40;;;;;;;13.17;9.67;;;0.90;99.90;;;;;;5043573;28;20186;-57
2023/11/30 09:50:06;;;;;;;14.30;8.57;;;0.90;99.90;;;;;;5045002;28;20525;-62
2023/11/30 09:52:32;;;;;;;12.93;9.43;;;1.00;99.90;;;;;;5044360;28;20208;-59
2023/11/30 09:54:58;;;;;;;12.60;8.10;;;1.00;99.90;;;;;;5047399;28;20453;-58
2023/11/30 09:57:24;;;;;;;10.50;7.67;;;0.90;99.90;;;;;;5047849;28;20203;-54
2023/11/30 09:59:50;;;;;;;6.30;5.70;;;1.10;99.90;;;;;;5050910;28;20449;-59
2023/11/30 10:02:17;;;;;;;8.60;6.00;;;1.10;99.90;;;;;;5047637;28;20477;-56
2023/11/30 10:04:44;;;;;;;9.93;6.47;;;1.10;99.90;;;;;;5050687;28;20986;-60
2023/11/30 10:07:10;;;;;;;10.57;7.10;;;1.20;99.90;;;;;;5049142;28;20434;-59
2023/11/30 10:09:37;;;;;;;12.47;8.30;;;1.50;99.90;;;;;;5047532;28;20449;-57
2023/11/30 10:12:06;;;;;;;9.47;7.53;;;1.30;99.90;;;;;;5049428;28;20531;-57
2023/11/30 10:14:31;;;;;;;12.77;8.43;;;1.30;99.90;;;;;;5049328;28;20649;-56
2023/11/30 10:16:59;;;;;;;16.83;10.43;;;1.30;99.90;;;;;;5051443;28;20414;-51
2023/11/30 10:19:25;;;;;;;16.67;9.67;;;1.40;99.90;;;;;;5053051;28;20225;-53
2023/11/30 10:21:53;;;;;;;17.93;10.10;;;1.40;99.90;;;;;;5046870;28;20434;-54
2023/11/30 10:24:19;;;;;;;14.13;9.83;;;1.40;99.90;;;;;;5057141;28;20194;-54
2023/11/30 10:26:50;;;;;;;11.80;7.90;;;1.40;99.90;;;;;;5056330;28;20429;-59
2023/11/30 10:29:20;;;;;;;16.67;10.60;;;1.40;99.90;;;;;;5053373;28;20206;-57
2023/11/30 10:31:49;;;;;;;15.33;9.67;;;1.40;99.90;;;;;;5051286;28;20456;-57
2023/11/30 10:34:18;;;;;;;13.17;7.97;;;1.40;99.90;;;;;;5056843;28;20467;-58
2023/11/30 10:36:44;;;;;;;13.70;8.10;;;1.40;99.90;;;;;;5060627;28;20417;-55
2023/11/30 10:39:16;;;;;;;8.97;8.00;;;1.40;99.90;;;;;;5065717;28;20981;-56
2023/11/30 10:41:52;;;;;;;9.43;6.37;;;1.60;99.90;;;;;;5052841;28;20197;-57
2023/11/30 10:44:27;;;;;;;10.23;7.67;;;1.60;99.90;;;;;;5062207;28;20431;-58
2023/11/30 10:46:54;;;;;;;9.50;6.50;;;1.50;99.90;;;;;;5056592;28;20786;-57
2023/11/30 10:49:22;;;;;;;10.63;8.23;;;1.60;99.90;;;;;;5052246;28;20445;-59
2023/11/30 10:51:51;;;;;;;12.27;7.03;;;1.80;99.90;;;;;;5051404;28;21306;-55
2023/11/30 10:54:54;;;;;;;9.90;6.87;;;1.70;99.90;;;;;;5049498;28;20985;-58
2023/11/30 10:57:21;;;;;;;9.73;6.50;;;1.50;99.90;;;;;;5058465;28;20918;-56
2023/11/30 10:59:49;;;;;;;9.50;7.60;;;1.50;99.90;;;;;;5051924;28;21027;-58
2023/11/30 11:02:15;;;;;;;10.83;6.93;;;1.50;99.90;;;;;;5051829;28;20529;-58
2023/11/30 11:04:42;;;;;;;8.03;6.27;;;1.30;99.90;;;;;;5052356;28;21024;-59
2023/11/30 11:07:14;;;;;;;15.30;7.10;;;1.60;99.90;;;;;;5052222;28;20507;-53
2023/11/30 11:09:50;;;;;;;8.33;6.90;;;1.90;99.90;;;;;;5052371;28;20853;-55
2023/11/30 11:12:26;;;;;;;12.70;7.73;;;2.10;99.90;;;;;;5048818;28;20449;-59
2023/11/30 11:15:08;;;;;;;15.57;9.37;;;2.20;99.90;;;;;;5057036;28;20467;-58
2023/11/30 11:17:45;;;;;;;12.00;8.57;;;2.30;99.90;;;;;;5059446;28;20473;-54
2023/11/30 11:20:22;;;;;;;11.83;9.27;;;2.10;99.90;;;;;;5062265;28;20463;-56
2023/11/30 11:22:49;;;;;;;11.77;8.47;;;1.90;99.90;;;;;;5048533;28;20536;-57
2023/11/30 11:25:16;;;;;;;10.27;7.97;;;2.00;99.90;;;;;;5059747;28;20435;-59
2023/11/30 11:27:42;;;;;;;17.80;9.07;;;2.00;99.90;;;;;;5050880;28;20417;-55
2023/11/30 11:30:08;;;;;;;10.73;7.90;;;1.90;99.90;;;;;;5034465;28;20444;-55
2023/11/30 11:32:35;;;;;;;14.60;9.67;;;1.80;99.90;;;;;;5047934;28;20556;-54
2023/11/30 11:35:02;;;;;;;14.07;8.87;;;1.70;99.90;;;;;;5053015;28;20457;-54
2023/11/30 11:37:28;;;;;;;16.53;9.10;;;1.70;99.90;;;;;;5063267;28;20421;-56
2023/11/30 11:39:54;;;;;;;15.50;9.80;;;1.50;99.90;;;;;;5053152;28;20978;-58
2023/11/30 11:42:20;;;;;;;12.53;7.57;;;1.50;99.90;;;;;;5044527;28;20199;-61
2023/11/30 11:44:48;;;;;;;11.20;7.93;;;1.60;99.90;;;;;;5030221;28;20567;-56
2023/11/30 11:47:14;;;;;;;11.07;8.80;;;1.50;99.90;;;;;;5042471;28;20183;-56
2023/11/30 11:49:40;;;;;;;10.70;7.70;;;1.50;99.90;;;;;;5046893;28;20543;-57
2023/11/30 11:52:06;;;;;;;11.33;8.60;;;1.70;99.90;;;;;;5049972;28;20645;-56
2023/11/30 11:54:31;;;;;;;9.10;7.50;;;1.90;99.90;;;;;;5050761;28;20468;-56
2023/11/30 11:56:57;;;;;;;9.47;6.77;;;1.80;99.90;;;;;;5048280;28;20222;-54
2023/11/30 11:59:24;;;;;;;13.20;8.80;;;1.80;99.90;;;;;;5052162;28;20700;-59
2023/11/30 12:01:55;;;;;;;15.17;7.90;;;1.80;99.90;;;;;;5055535;28;20179;-60
2023/11/30 12:04:28;;;;;;;13.87;8.77;;;1.90;99.90;;;;;;5047556;28;20543;-57
2023/11/30 12:06:54;;;;;;;16.77;11.03;;;1.90;99.90;;;;;;5048106;28;20436;-58
2023/11/30 12:09:20;;;;;;;13.70;9.50;;;1.90;99.90;;;;;;5050620;28;20826;-58
2023/11/30 12:11:47;;;;;;;15.43;10.20;;;1.80;99.90;;;;;;5050754;28;20430;-57
2023/11/30 12:14:16;;;;;;;14.80;9.93;;;1.70;99.90;;;;;;5050950;28;20960;-56
2023/11/30 12:16:42;;;;;;;12.90;9.00;;;1.70;99.90;;;;;;5050696;28;20468;-57
2023/11/30 12:19:08;;;;;;;13.70;10.00;;;1.40;99.90;;;;;;5050495;28;20453;-63
2023/11/30 12:21:35;;;;;;;15.67;11.00;;;1.40;99.90;;;;;;5036664;28;20533;-60
2023/11/30 12:24:01;;;;;;;16.60;11.00;;;1.20;99.90;;;;;;5041631;28;20438;-60
2023/11/30 12:26:27;;;;;;;17.50;11.60;;;1.10;99.90;;;;;;5044617;28;20444;-55
2023/11/30 12:28:54;;;;;;;15.60;11.33;;;1.10;99.90;;;;;;5047785;28;20858;-57
2023/11/30 12:31:21;;;;;;;16.13;11.37;;;1.10;99.90;;;;;;5048139;28;20479;-57
2023/11/30 12:33:46;;;;;;;15.57;10.33;;;1.20;99.90;;;;;;5050487;28;20461;-55